Airfield :







YOU CAN JOIN US ON...

 
LOGIN :

Register | Disclaimer

   EN    FR    IT 

 









Legend :    VFR   Marginal VFR   IFR   Intensive IFR   Very Intensive IFR
Visi :
Ceiling :
>= 8 km
>= 3000ft
5 to 8 km
1000 to 3000 ft
1500m to 5 km
500 to 1000 ft
800 to 1500m
200 to 500 ft
< 800m
< 200 ft
Symbols :   Thunderstorms  Fog  Heavy snow  Heavy precipitations  Wind > 20 kt







- Airport Elevation : 84 ft
- IATA code : YJT


CYJT - Stephenville

CURRENT METAR :
  • 171800Z 16003KT 15SM SCT040 BKN080 20/16 A2977 RMK SC3AC4 SLP083 DENSITY ALT 900FT

EXPIRED METARs :
  • 171700Z 26006KT 15SM FEW025 SCT080 BKN100 23/17 A2978 RMK CU1AC3AC2 SLP088 DENSITY ALT 1200FT
  • 171600Z 25005KT 15SM FEW025 BKN080 21/15 A2982 RMK CU1AC5 SLP099 DENSITY ALT 1000FT

TAF TAF CYJT
Valid from the 17 at 18:00 until the 18 at 18:00 UTC


171738Z 1718/1818 25010KT P6SM SCT080
TEMPO 1718/1721 BKN080
FM172100 24012KT P6SM BKN030
TEMPO 1721/1802 P6SM -SHRA BKN020
FM180200 22010KT 2SM -RA BR OVC005
PROB30 1803/1806 1/2SM FG VV002
FM180700 31012KT P6SM BKN015
FM181200 31015G25KT P6SM SKC RMK NXT FCST BY 180000Z
CZQX FIR / North America



MET'MAP, your aeronautical weather chart ! - Copyright ORBIFLY December 2007 - Disclaimer

ORBIFLY MET'MAP TEAM :

Programming & Development : Alexandra Zaïnal
Concept & Development : Baudouin d'Aumeries
Co-Development & Prog : Marc-Olivier Méhu
Technical & hardware support : Manuel Goepfert

Contact : metmap@orbifly.com




SOURCES & CREDITS :

   NOAA